Time;durP1;ratioP1;P1;durP2;ratioP2;P2;SDS_P1;SDS_P2;PMS_P1;PMS_P2;Temp;Humidity;BMP_temperature;BMP_pressure;BME280_temperature;BME280_humidity;BME280_pressure;Samples;Min_cycle;Max_cycle;Signal;HPM_P1;HPM_P2
2023/09/29 00:02:05;;;;;;;8.00;3.07;;;;;;;;;;5038335;28;20035;-61
2023/09/29 00:04:31;;;;;;;6.37;3.23;;;;;;;;;;5036442;28;20331;-62
2023/09/29 00:06:56;;;;;;;6.22;2.95;;;;;;;;;;5007334;28;20309;-62
2023/09/29 00:09:22;;;;;;;8.38;2.88;;;;;;;;;;5024820;28;20065;-61
2023/09/29 00:11:48;;;;;;;6.35;2.80;;;;;;;;;;5033602;28;20049;-62
2023/09/29 00:14:13;;;;;;;6.60;2.78;;;;;;;;;;5042749;28;20036;-62
2023/09/29 00:16:40;;;;;;;8.50;2.72;;;;;;;;;;5043026;28;20048;-60
2023/09/29 00:19:05;;;;;;;8.70;3.33;;;;;;;;;;5031192;28;20919;-61
2023/09/29 00:21:30;;;;;;;8.02;3.50;;;;;;;;;;5039743;28;20044;-61
2023/09/29 00:23:56;;;;;;;7.35;3.03;;;;;;;;;;5042667;28;20501;-62
2023/09/29 00:26:21;;;;;;;5.63;2.90;;;;;;;;;;5044733;28;20635;-62
2023/09/29 00:28:46;;;;;;;6.47;3.05;;;;;;;;;;5042391;28;20043;-62
2023/09/29 00:31:15;;;;;;;7.13;2.72;;;;;;;;;;5043795;28;20029;-62
2023/09/29 00:33:40;;;;;;;7.28;2.92;;;;;;;;;;5041838;28;20041;-61
2023/09/29 00:36:06;;;;;;;7.32;3.10;;;;;;;;;;5040969;28;20066;-61
2023/09/29 00:38:33;;;;;;;6.22;3.30;;;;;;;;;;5041753;28;20562;-61
2023/09/29 00:40:58;;;;;;;10.15;3.35;;;;;;;;;;5042005;28;20082;-61
2023/09/29 00:43:23;;;;;;;5.60;3.05;;;;;;;;;;5026326;28;20036;-62
2023/09/29 00:45:49;;;;;;;6.88;3.22;;;;;;;;;;5043572;28;20033;-61
2023/09/29 00:48:14;;;;;;;9.20;3.47;;;;;;;;;;5042395;28;20032;-61
2023/09/29 00:50:40;;;;;;;7.35;3.55;;;;;;;;;;5043038;28;20180;-61
2023/09/29 00:53:11;;;;;;;7.00;3.25;;;;;;;;;;5042852;28;20132;-61
2023/09/29 00:55:36;;;;;;;8.80;3.30;;;;;;;;;;5042259;28;20066;-62
2023/09/29 00:58:02;;;;;;;8.40;3.50;;;;;;;;;;5025277;28;20092;-61
2023/09/29 01:02:53;;;;;;;8.50;3.53;;;;;;;;;;5041315;28;20118;-61
2023/09/29 01:05:18;;;;;;;8.23;3.70;;;;;;;;;;5042124;28;20819;-61
2023/09/29 01:07:44;;;;;;;7.97;3.33;;;;;;;;;;5043774;28;20480;-61
2023/09/29 01:10:13;;;;;;;11.10;3.53;;;;;;;;;;5042810;28;20033;-60
2023/09/29 01:12:39;;;;;;;7.43;3.47;;;;;;;;;;5043119;28;20049;-62
2023/09/29 01:15:05;;;;;;;8.85;3.40;;;;;;;;;;5043508;28;20048;-61
2023/09/29 01:17:30;;;;;;;8.60;4.28;;;;;;;;;;5042614;28;20044;-61
2023/09/29 01:19:55;;;;;;;7.82;3.40;;;;;;;;;;5041421;28;20041;-61
2023/09/29 01:22:21;;;;;;;5.93;3.40;;;;;;;;;;5043448;28;20182;-61
2023/09/29 01:24:46;;;;;;;7.28;3.40;;;;;;;;;;5043493;28;20036;-61
2023/09/29 01:27:11;;;;;;;9.20;3.42;;;;;;;;;;5050002;28;20052;-61
2023/09/29 01:29:39;;;;;;;6.45;3.33;;;;;;;;;;5049246;28;20048;-61
2023/09/29 01:32:04;;;;;;;6.85;3.35;;;;;;;;;;5050029;28;20132;-61
2023/09/29 01:34:31;;;;;;;12.23;3.53;;;;;;;;;;5047693;28;20178;-62
2023/09/29 01:36:59;;;;;;;8.38;3.78;;;;;;;;;;5047747;28;20726;-62
2023/09/29 01:39:25;;;;;;;8.45;3.58;;;;;;;;;;5028612;28;20103;-61
2023/09/29 01:41:50;;;;;;;6.88;3.38;;;;;;;;;;5048871;28;20092;-61
2023/09/29 01:44:16;;;;;;;10.87;3.40;;;;;;;;;;5049385;28;20063;-61
2023/09/29 01:46:41;;;;;;;7.60;3.30;;;;;;;;;;5049970;28;20255;-61
2023/09/29 01:49:06;;;;;;;7.72;3.25;;;;;;;;;;5050089;28;20105;-61
2023/09/29 01:51:31;;;;;;;7.70;3.43;;;;;;;;;;5048439;28;20400;-61
2023/09/29 01:53:57;;;;;;;7.53;3.35;;;;;;;;;;5049310;28;20373;-61
2023/09/29 01:56:23;;;;;;;5.95;3.08;;;;;;;;;;5050123;28;20127;-61
2023/09/29 01:58:49;;;;;;;8.38;3.35;;;;;;;;;;5048384;28;20473;-61
2023/09/29 02:01:14;;;;;;;7.07;3.53;;;;;;;;;;5048291;28;20853;-61
2023/09/29 02:03:41;;;;;;;8.27;3.58;;;;;;;;;;5048163;28;20043;-62
2023/09/29 02:06:06;;;;;;;7.95;2.85;;;;;;;;;;5048845;28;20017;-61
2023/09/29 02:08:31;;;;;;;8.80;3.40;;;;;;;;;;5049124;28;20050;-61
2023/09/29 02:10:56;;;;;;;7.18;3.13;;;;;;;;;;5047879;28;20538;-61
2023/09/29 02:13:22;;;;;;;6.80;2.78;;;;;;;;;;5049526;28;20021;-61
2023/09/29 02:15:47;;;;;;;10.30;3.33;;;;;;;;;;5049952;28;20021;-60
2023/09/29 02:18:12;;;;;;;7.05;2.92;;;;;;;;;;5049684;28;20073;-62
2023/09/29 02:20:42;;;;;;;8.65;3.17;;;;;;;;;;5047980;28;20025;-61
2023/09/29 02:23:07;;;;;;;6.18;2.75;;;;;;;;;;5031977;28;20078;-61
2023/09/29 02:25:33;;;;;;;6.70;2.83;;;;;;;;;;5050026;28;20455;-62
2023/09/29 02:27:59;;;;;;;6.97;3.42;;;;;;;;;;5049195;28;20033;-61
2023/09/29 02:30:24;;;;;;;7.85;2.92;;;;;;;;;;5031633;28;20048;-61
2023/09/29 02:32:52;;;;;;;5.90;3.22;;;;;;;;;;5048625;28;20849;-62
2023/09/29 02:35:17;;;;;;;8.27;3.17;;;;;;;;;;5031793;28;20060;-62
2023/09/29 02:37:43;;;;;;;7.93;3.40;;;;;;;;;;5048392;28;20478;-61
2023/09/29 02:40:11;;;;;;;9.50;3.22;;;;;;;;;;5046518;28;20040;-62
2023/09/29 02:42:37;;;;;;;5.63;3.15;;;;;;;;;;5046598;28;20029;-61
2023/09/29 02:45:03;;;;;;;6.25;3.10;;;;;;;;;;5045772;28;20373;-61
2023/09/29 02:47:29;;;;;;;6.22;2.78;;;;;;;;;;5046884;28;20037;-61
2023/09/29 02:49:56;;;;;;;7.20;3.20;;;;;;;;;;5044861;28;20033;-61
2023/09/29 02:52:21;;;;;;;7.20;3.00;;;;;;;;;;5045217;28;20037;-61
2023/09/29 02:54:46;;;;;;;8.75;2.92;;;;;;;;;;5021973;28;20029;-61
2023/09/29 02:57:13;;;;;;;6.68;3.20;;;;;;;;;;5032646;28;20082;-61
2023/09/29 02:59:39;;;;;;;7.15;3.08;;;;;;;;;;5013602;28;20196;-62
2023/09/29 03:02:04;;;;;;;6.03;3.00;;;;;;;;;;5045697;28;20536;-61
2023/09/29 03:04:30;;;;;;;8.95;3.17;;;;;;;;;;5046087;28;20041;-62
2023/09/29 03:06:56;;;;;;;8.40;3.13;;;;;;;;;;5029287;28;20057;-61
2023/09/29 03:09:22;;;;;;;7.72;3.00;;;;;;;;;;5044594;28;20237;-61
2023/09/29 03:11:47;;;;;;;7.15;2.40;;;;;;;;;;5046296;28;20116;-60
2023/09/29 03:14:15;;;;;;;6.03;2.35;;;;;;;;;;5046221;28;20150;-61
2023/09/29 03:16:41;;;;;;;5.15;2.63;;;;;;;;;;5044723;28;20056;-60
2023/09/29 03:19:08;;;;;;;8.57;2.90;;;;;;;;;;5044298;28;20098;-61
2023/09/29 03:21:33;;;;;;;4.93;2.40;;;;;;;;;;5044534;28;20058;-61
2023/09/29 03:23:58;;;;;;;7.25;2.50;;;;;;;;;;5044061;28;20218;-61
2023/09/29 03:26:25;;;;;;;6.65;2.47;;;;;;;;;;5045768;28;20033;-61
2023/09/29 03:28:50;;;;;;;7.03;2.50;;;;;;;;;;5043884;28;20037;-61
2023/09/29 03:31:15;;;;;;;6.00;2.47;;;;;;;;;;5044197;28;20540;-61
2023/09/29 03:33:42;;;;;;;6.10;2.15;;;;;;;;;;5027287;28;20037;-61
2023/09/29 03:36:08;;;;;;;5.75;2.30;;;;;;;;;;5045205;28;20131;-60
2023/09/29 03:38:33;;;;;;;5.35;2.45;;;;;;;;;;5045761;28;20073;-62
2023/09/29 03:40:58;;;;;;;7.07;2.50;;;;;;;;;;5044897;28;20040;-61
2023/09/29 03:43:23;;;;;;;6.20;2.72;;;;;;;;;;5045459;28;20048;-61
2023/09/29 03:45:49;;;;;;;8.65;2.40;;;;;;;;;;5036213;28;20029;-61
2023/09/29 03:48:15;;;;;;;6.47;2.65;;;;;;;;;;5043588;28;20041;-61
2023/09/29 03:50:41;;;;;;;6.32;2.40;;;;;;;;;;5043759;28;20039;-61
2023/09/29 03:53:06;;;;;;;6.75;2.50;;;;;;;;;;5045140;28;20116;-63
2023/09/29 03:55:32;;;;;;;5.82;2.80;;;;;;;;;;5043306;28;20075;-59
2023/09/29 03:57:57;;;;;;;6.53;2.80;;;;;;;;;;5028977;28;20486;-59
2023/09/29 04:00:22;;;;;;;7.27;3.00;;;;;;;;;;5015960;28;20033;-60
2023/09/29 04:02:50;;;;;;;6.13;2.70;;;;;;;;;;5024223;28;20838;-61
2023/09/29 04:05:17;;;;;;;8.38;2.72;;;;;;;;;;5036062;28;20099;-60
2023/09/29 04:07:42;;;;;;;7.15;2.67;;;;;;;;;;5043824;28;20515;-61
2023/09/29 04:10:11;;;;;;;5.93;2.75;;;;;;;;;;5046178;28;20057;-62
2023/09/29 04:12:40;;;;;;;5.55;2.45;;;;;;;;;;5045232;28;20025;-61
2023/09/29 04:15:06;;;;;;;7.85;2.92;;;;;;;;;;5045233;28;20091;-61
2023/09/29 04:17:32;;;;;;;6.65;2.60;;;;;;;;;;5045176;28;20425;-61
2023/09/29 04:19:57;;;;;;;5.85;2.78;;;;;;;;;;5044225;28;20045;-61
2023/09/29 04:22:25;;;;;;;6.32;2.95;;;;;;;;;;5044332;28;20021;-61
2023/09/29 04:24:51;;;;;;;5.95;2.60;;;;;;;;;;5042989;28;20045;-60
2023/09/29 04:27:16;;;;;;;8.35;3.00;;;;;;;;;;5044547;28;20041;-61
2023/09/29 04:29:41;;;;;;;8.10;2.88;;;;;;;;;;5041901;28;20041;-61
2023/09/29 04:32:06;;;;;;;6.80;2.95;;;;;;;;;;5044862;28;20033;-62
2023/09/29 04:34:32;;;;;;;6.18;2.80;;;;;;;;;;5042618;28;20081;-61
2023/09/29 04:36:57;;;;;;;9.07;3.03;;;;;;;;;;5042167;28;20465;-61
2023/09/29 04:39:22;;;;;;;6.25;3.35;;;;;;;;;;5044529;28;20068;-61
2023/09/29 04:41:48;;;;;;;5.57;2.78;;;;;;;;;;5044858;28;20055;-61
2023/09/29 04:44:13;;;;;;;6.57;2.95;;;;;;;;;;5044537;28;20465;-61
2023/09/29 04:46:39;;;;;;;6.65;2.88;;;;;;;;;;5043935;28;20056;-62
2023/09/29 04:49:04;;;;;;;7.30;3.13;;;;;;;;;;5043071;28;20120;-61
2023/09/29 04:51:32;;;;;;;7.67;3.10;;;;;;;;;;5043390;28;20040;-61
2023/09/29 04:53:58;;;;;;;8.10;2.97;;;;;;;;;;5042602;28;20512;-62
2023/09/29 04:56:23;;;;;;;8.45;2.75;;;;;;;;;;5041847;28;20116;-61
2023/09/29 04:58:48;;;;;;;7.30;3.35;;;;;;;;;;5044152;28;20053;-61
2023/09/29 05:01:17;;;;;;;10.18;3.08;;;;;;;;;;5043708;28;20045;-61
2023/09/29 05:03:43;;;;;;;8.13;3.20;;;;;;;;;;5026282;28;20468;-61
2023/09/29 05:06:08;;;;;;;8.10;3.22;;;;;;;;;;5041990;28;20066;-61
2023/09/29 05:08:35;;;;;;;6.75;3.60;;;;;;;;;;5043477;28;20079;-62
2023/09/29 05:11:01;;;;;;;7.40;3.30;;;;;;;;;;5025738;28;20098;-61
2023/09/29 05:13:32;;;;;;;5.35;3.10;;;;;;;;;;5042932;28;20033;-60
2023/09/29 05:15:57;;;;;;;7.38;3.25;;;;;;;;;;5042354;28;20037;-61
2023/09/29 05:18:23;;;;;;;7.15;3.47;;;;;;;;;;5043487;28;20099;-61
2023/09/29 05:20:48;;;;;;;9.82;3.60;;;;;;;;;;5041649;28;20045;-60
2023/09/29 05:23:13;;;;;;;9.60;3.53;;;;;;;;;;5041463;28;20036;-61
2023/09/29 05:25:43;;;;;;;10.07;3.67;;;;;;;;;;5041906;28;20037;-60
2023/09/29 05:28:08;;;;;;;10.27;3.75;;;;;;;;;;5037812;28;20385;-61
2023/09/29 05:30:33;;;;;;;8.43;3.55;;;;;;;;;;5017382;28;20042;-60
2023/09/29 05:32:59;;;;;;;9.07;3.80;;;;;;;;;;5041450;28;20433;-60
2023/09/29 05:35:24;;;;;;;9.00;3.70;;;;;;;;;;5041040;28;20600;-60
2023/09/29 05:37:50;;;;;;;8.27;3.58;;;;;;;;;;5037912;28;20049;-61
2023/09/29 05:40:15;;;;;;;9.70;3.38;;;;;;;;;;5028909;28;20095;-61
2023/09/29 05:42:43;;;;;;;6.43;3.42;;;;;;;;;;5028121;28;20442;-60
2023/09/29 05:45:09;;;;;;;10.90;4.00;;;;;;;;;;5028676;28;20091;-61
2023/09/29 05:47:34;;;;;;;12.95;4.47;;;;;;;;;;5029488;28;20728;-61
2023/09/29 05:49:59;;;;;;;9.57;4.15;;;;;;;;;;5029856;28;20140;-61
2023/09/29 05:52:25;;;;;;;9.13;4.03;;;;;;;;;;5028865;28;20107;-61
2023/09/29 05:54:50;;;;;;;10.60;4.00;;;;;;;;;;5029662;28;20288;-61
2023/09/29 05:57:15;;;;;;;10.52;4.30;;;;;;;;;;5031196;28;20028;-61
2023/09/29 05:59:41;;;;;;;10.03;4.43;;;;;;;;;;5039607;28;20057;-62
2023/09/29 06:02:06;;;;;;;12.98;4.88;;;;;;;;;;5034582;28;20283;-61
2023/09/29 06:04:31;;;;;;;15.27;5.07;;;;;;;;;;5029296;28;20029;-60
2023/09/29 06:06:57;;;;;;;12.82;4.65;;;;;;;;;;5028271;28;20777;-61
2023/09/29 06:09:22;;;;;;;12.52;5.32;;;;;;;;;;5028279;28;20454;-62
2023/09/29 06:11:49;;;;;;;14.57;5.32;;;;;;;;;;5036182;28;20620;-62
2023/09/29 06:14:14;;;;;;;12.75;4.90;;;;;;;;;;5045663;28;20044;-60
2023/09/29 06:16:39;;;;;;;12.98;5.25;;;;;;;;;;5045707;28;20421;-62
2023/09/29 06:19:05;;;;;;;11.90;5.72;;;;;;;;;;5046185;28;20045;-58
2023/09/29 06:21:30;;;;;;;11.27;6.00;;;;;;;;;;5045679;28;20033;-61
2023/09/29 06:23:55;;;;;;;15.45;5.55;;;;;;;;;;5046591;28;20283;-60
2023/09/29 06:26:20;;;;;;;14.50;5.63;;;;;;;;;;5045992;28;20533;-59
2023/09/29 06:28:46;;;;;;;11.85;5.45;;;;;;;;;;5044062;28;20029;-60
2023/09/29 06:31:11;;;;;;;13.77;5.50;;;;;;;;;;5044191;28;20416;-60
2023/09/29 06:33:36;;;;;;;11.32;5.18;;;;;;;;;;5043243;28;20041;-60
2023/09/29 06:36:01;;;;;;;15.00;5.82;;;;;;;;;;5044917;28;20026;-60
2023/09/29 06:38:29;;;;;;;13.50;5.47;;;;;;;;;;5042173;28;20049;-60
2023/09/29 06:40:57;;;;;;;13.13;5.35;;;;;;;;;;5042625;28;20033;-60
2023/09/29 06:43:22;;;;;;;14.40;6.18;;;;;;;;;;5045174;28;20029;-60
2023/09/29 06:45:47;;;;;;;10.95;5.40;;;;;;;;;;5044792;28;20091;-60
2023/09/29 06:48:13;;;;;;;17.85;5.93;;;;;;;;;;5052962;28;20155;-65
2023/09/29 06:50:38;;;;;;;18.38;5.95;;;;;;;;;;5045333;28;20116;-60
2023/09/29 06:53:03;;;;;;;12.23;5.70;;;;;;;;;;5037662;28;20068;-60
2023/09/29 06:55:29;;;;;;;15.88;6.00;;;;;;;;;;5045640;28;20116;-61
2023/09/29 06:57:54;;;;;;;14.77;5.63;;;;;;;;;;5044186;28;20037;-60
2023/09/29 07:00:19;;;;;;;11.27;5.32;;;;;;;;;;5045079;28;20306;-60
2023/09/29 07:02:45;;;;;;;14.32;6.07;;;;;;;;;;5045924;28;20189;-61
2023/09/29 07:05:10;;;;;;;14.95;5.93;;;;;;;;;;5043183;28;20029;-61
2023/09/29 07:07:36;;;;;;;12.18;5.72;;;;;;;;;;5043343;28;20093;-61
2023/09/29 07:10:01;;;;;;;10.65;5.22;;;;;;;;;;5043620;28;20052;-61
2023/09/29 07:12:26;;;;;;;13.75;5.47;;;;;;;;;;5045661;28;20049;-60
2023/09/29 07:14:51;;;;;;;18.10;5.38;;;;;;;;;;5044921;28;20040;-61
2023/09/29 07:17:17;;;;;;;14.02;5.22;;;;;;;;;;5045572;28;20122;-61
2023/09/29 07:19:43;;;;;;;17.45;5.20;;;;;;;;;;5045197;28;20508;-61
2023/09/29 07:22:08;;;;;;;14.55;5.13;;;;;;;;;;5041770;28;20479;-60
2023/09/29 07:24:33;;;;;;;14.38;5.00;;;;;;;;;;5044320;28;20045;-61
2023/09/29 07:26:59;;;;;;;12.38;4.93;;;;;;;;;;5045299;28;20578;-60
2023/09/29 07:29:24;;;;;;;12.23;4.65;;;;;;;;;;5044332;28;20033;-61
2023/09/29 07:31:49;;;;;;;15.57;4.45;;;;;;;;;;5045010;28;20035;-61
2023/09/29 07:34:17;;;;;;;11.03;4.57;;;;;;;;;;5044262;28;20104;-61
2023/09/29 07:36:44;;;;;;;9.23;4.38;;;;;;;;;;5045229;28;20366;-61
2023/09/29 07:39:13;;;;;;;9.27;4.22;;;;;;;;;;5040182;28;20080;-61
2023/09/29 07:41:38;;;;;;;8.15;4.03;;;;;;;;;;5042220;28;20044;-61
2023/09/29 07:44:04;;;;;;;10.45;4.13;;;;;;;;;;5044194;28;20461;-62
2023/09/29 07:46:29;;;;;;;8.70;4.00;;;;;;;;;;5044918;28;20033;-62
2023/09/29 07:48:55;;;;;;;8.25;3.92;;;;;;;;;;5043828;28;20033;-61
2023/09/29 07:51:20;;;;;;;9.43;3.53;;;;;;;;;;5045225;28;20116;-62
2023/09/29 07:53:45;;;;;;;12.40;3.90;;;;;;;;;;5042395;28;20310;-62
2023/09/29 07:56:10;;;;;;;10.40;3.40;;;;;;;;;;5044181;28;20056;-61
2023/09/29 07:58:36;;;;;;;9.07;3.40;;;;;;;;;;5043808;28;20343;-61
2023/09/29 08:01:01;;;;;;;8.63;3.47;;;;;;;;;;5044164;28;20656;-60
2023/09/29 08:03:26;;;;;;;12.73;3.60;;;;;;;;;;5045120;28;20489;-61
2023/09/29 08:05:53;;;;;;;8.30;3.57;;;;;;;;;;5043064;28;20297;-60
2023/09/29 08:08:18;;;;;;;8.27;3.05;;;;;;;;;;5041371;28;20795;-60
2023/09/29 08:10:44;;;;;;;6.97;3.58;;;;;;;;;;5040872;28;20116;-61
2023/09/29 08:13:09;;;;;;;6.95;3.08;;;;;;;;;;5042864;28;20128;-60
2023/09/29 08:15:34;;;;;;;10.60;2.80;;;;;;;;;;5043800;28;20033;-62
2023/09/29 08:18:00;;;;;;;5.53;3.08;;;;;;;;;;5042848;28;20052;-60
2023/09/29 08:20:25;;;;;;;9.57;2.90;;;;;;;;;;5043708;28;20033;-61
2023/09/29 08:22:51;;;;;;;11.45;3.10;;;;;;;;;;5043986;28;20033;-61
2023/09/29 08:25:16;;;;;;;7.82;2.60;;;;;;;;;;5044428;28;20481;-60
2023/09/29 08:27:42;;;;;;;9.25;3.03;;;;;;;;;;5043587;28;20041;-61
2023/09/29 08:30:07;;;;;;;6.90;2.65;;;;;;;;;;5047854;28;20029;-61
2023/09/29 08:32:33;;;;;;;9.55;2.30;;;;;;;;;;5042518;28;20036;-60
2023/09/29 08:34:58;;;;;;;7.85;2.47;;;;;;;;;;5037489;28;20082;-60
2023/09/29 08:37:23;;;;;;;8.35;3.00;;;;;;;;;;5026376;28;20056;-62
2023/09/29 08:39:50;;;;;;;5.80;2.30;;;;;;;;;;5028676;28;20478;-60
2023/09/29 08:42:30;;;;;;;5.75;2.35;;;;;;;;;;5029203;28;20029;-60
2023/09/29 08:44:56;;;;;;;6.00;2.22;;;;;;;;;;5027949;28;20088;-60
2023/09/29 08:47:21;;;;;;;6.60;2.50;;;;;;;;;;5032536;28;20104;-60
2023/09/29 08:49:47;;;;;;;6.65;2.25;;;;;;;;;;5034245;28;20016;-60
2023/09/29 08:52:13;;;;;;;7.10;2.55;;;;;;;;;;5033098;28;20029;-61
2023/09/29 08:54:38;;;;;;;7.82;2.63;;;;;;;;;;5033765;28;20119;-59
2023/09/29 08:57:05;;;;;;;10.23;2.80;;;;;;;;;;5028365;28;20028;-60
2023/09/29 08:59:30;;;;;;;8.38;2.55;;;;;;;;;;5027930;28;20057;-60
2023/09/29 09:01:58;;;;;;;6.70;2.70;;;;;;;;;;5029052;28;20030;-61
2023/09/29 09:04:24;;;;;;;5.68;2.80;;;;;;;;;;5031351;28;20047;-61
2023/09/29 09:06:50;;;;;;;6.43;2.05;;;;;;;;;;5032741;28;20033;-60
2023/09/29 09:09:20;;;;;;;6.22;2.20;;;;;;;;;;5042635;28;20568;-59
2023/09/29 09:11:46;;;;;;;4.70;1.90;;;;;;;;;;5028364;28;20048;-61
2023/09/29 09:14:11;;;;;;;4.75;2.03;;;;;;;;;;5029266;28;20106;-60
2023/09/29 09:16:38;;;;;;;6.25;2.00;;;;;;;;;;5028642;28;20041;-58
2023/09/29 09:19:13;;;;;;;7.45;2.28;;;;;;;;;;5028458;28;20656;-59
2023/09/29 09:21:38;;;;;;;5.90;2.15;;;;;;;;;;5029571;28;20171;-60
2023/09/29 09:24:04;;;;;;;6.28;2.42;;;;;;;;;;5028281;28;20142;-60
2023/09/29 09:26:30;;;;;;;6.65;2.20;;;;;;;;;;5028736;28;20033;-61
2023/09/29 09:29:05;;;;;;;5.18;2.17;;;;;;;;;;5032242;28;20416;-61
2023/09/29 09:31:40;;;;;;;7.40;1.90;;;;;;;;;;5032909;28;20049;-62
2023/09/29 09:34:05;;;;;;;6.03;2.33;;;;;;;;;;5027279;28;20386;-59
2023/09/29 09:36:30;;;;;;;8.37;2.00;;;;;;;;;;5028967;28;20037;-59
2023/09/29 09:38:56;;;;;;;6.68;2.22;;;;;;;;;;5042520;28;20734;-59
2023/09/29 09:41:21;;;;;;;3.58;2.17;;;;;;;;;;5027998;28;20495;-60
2023/09/29 09:43:46;;;;;;;9.50;2.47;;;;;;;;;;5032772;28;20459;-60
2023/09/29 09:46:12;;;;;;;8.25;2.28;;;;;;;;;;5028270;28;20295;-59
2023/09/29 09:48:49;;;;;;;7.03;2.42;;;;;;;;;;5031972;28;20029;-60
2023/09/29 09:51:18;;;;;;;4.90;1.95;;;;;;;;;;5032237;28;20045;-62
2023/09/29 09:53:43;;;;;;;6.50;2.70;;;;;;;;;;5030445;28;20035;-60
2023/09/29 09:56:19;;;;;;;5.40;2.45;;;;;;;;;;5038902;28;20033;-60
2023/09/29 09:58:47;;;;;;;7.07;2.30;;;;;;;;;;5019563;28;20408;-60
2023/09/29 10:01:12;;;;;;;7.18;2.00;;;;;;;;;;5047723;28;20087;-60
2023/09/29 10:03:38;;;;;;;9.33;2.60;;;;;;;;;;5036542;28;20045;-60
2023/09/29 10:06:05;;;;;;;6.35;2.67;;;;;;;;;;5038351;28;20365;-61
2023/09/29 10:08:30;;;;;;;6.75;2.67;;;;;;;;;;5032373;28;20447;-59
2023/09/29 10:11:10;;;;;;;10.13;2.50;;;;;;;;;;5032205;28;20059;-60
2023/09/29 10:13:35;;;;;;;;;;;;;;;;;;5034516;28;20033;-59
2023/09/29 10:16:05;;;;;;;6.43;2.50;;;;;;;;;;5035851;28;19913;-61
2023/09/29 10:18:32;;;;;;;7.63;2.50;;;;;;;;;;5034118;28;20453;-62
2023/09/29 10:21:04;;;;;;;6.03;2.38;;;;;;;;;;5034257;28;20052;-61
2023/09/29 10:23:30;;;;;;;7.70;2.67;;;;;;;;;;5031384;28;20061;-60
2023/09/29 10:25:56;;;;;;;8.77;2.72;;;;;;;;;;5038992;28;20134;-60
2023/09/29 10:28:29;;;;;;;5.72;2.40;;;;;;;;;;5039752;28;20513;-61
2023/09/29 10:33:44;;;;;;;5.53;2.60;;;;;;;;;;5029868;28;20048;-62
2023/09/29 10:36:11;;;;;;;4.97;2.42;;;;;;;;;;5031352;28;20655;-61
2023/09/29 10:38:36;;;;;;;6.47;2.50;;;;;;;;;;5032084;28;20067;-60
2023/09/29 10:41:03;;;;;;;7.63;2.67;;;;;;;;;;5032410;28;20119;-60
2023/09/29 10:43:28;;;;;;;8.50;2.50;;;;;;;;;;5019354;28;21058;-61
2023/09/29 10:45:54;;;;;;;5.93;2.40;;;;;;;;;;5028307;28;20053;-62
2023/09/29 10:48:23;;;;;;;5.13;2.30;;;;;;;;;;5031053;28;20042;-59
2023/09/29 10:50:49;;;;;;;7.60;2.63;;;;;;;;;;5038716;28;20040;-60
2023/09/29 10:53:15;;;;;;;5.72;2.67;;;;;;;;;;5045498;28;20120;-61
2023/09/29 10:55:41;;;;;;;5.18;2.85;;;;;;;;;;5044246;28;20123;-60
2023/09/29 10:58:06;;;;;;;7.57;2.78;;;;;;;;;;5042774;28;20119;-60
2023/09/29 11:00:40;;;;;;;7.47;2.40;;;;;;;;;;5042356;28;20151;-60
2023/09/29 11:03:06;;;;;;;10.65;2.90;;;;;;;;;;5045341;28;20350;-59
2023/09/29 11:05:32;;;;;;;8.68;2.67;;;;;;;;;;5038457;28;20033;-59
2023/09/29 11:07:58;;;;;;;8.93;2.67;;;;;;;;;;5031510;28;20029;-60
2023/09/29 11:10:24;;;;;;;5.60;3.00;;;;;;;;;;5044372;28;20315;-60
2023/09/29 11:12:50;;;;;;;8.70;2.90;;;;;;;;;;5041880;28;20025;-60
2023/09/29 11:15:17;;;;;;;6.03;2.80;;;;;;;;;;5044970;28;20048;-59
2023/09/29 11:17:44;;;;;;;5.88;2.72;;;;;;;;;;5043281;28;20041;-59
2023/09/29 11:20:14;;;;;;;4.68;2.67;;;;;;;;;;5049192;28;20052;-59
2023/09/29 11:22:42;;;;;;;9.02;3.30;;;;;;;;;;5043848;28;20056;-59
2023/09/29 11:25:15;;;;;;;9.05;3.47;;;;;;;;;;5044891;28;20037;-59
2023/09/29 11:27:47;;;;;;;5.38;2.58;;;;;;;;;;5044885;28;20505;-59
2023/09/29 11:30:13;;;;;;;7.75;3.30;;;;;;;;;;5042895;28;20041;-59
2023/09/29 11:32:38;;;;;;;7.28;3.10;;;;;;;;;;5027068;28;20321;-60
2023/09/29 11:35:13;;;;;;;6.13;3.00;;;;;;;;;;5044336;28;20060;-59
2023/09/29 11:37:38;;;;;;;8.07;2.92;;;;;;;;;;5038467;28;20033;-59
2023/09/29 11:40:11;;;;;;;5.57;2.88;;;;;;;;;;5037139;28;20433;-60
2023/09/29 11:42:37;;;;;;;5.57;3.00;;;;;;;;;;5045340;28;20067;-60
2023/09/29 11:45:08;;;;;;;6.90;2.92;;;;;;;;;;5037547;28;20040;-60
2023/09/29 11:47:34;;;;;;;7.53;3.05;;;;;;;;;;5028595;28;20544;-61
2023/09/29 11:50:00;;;;;;;8.60;2.90;;;;;;;;;;5030145;28;20067;-61
2023/09/29 11:52:26;;;;;;;6.93;2.58;;;;;;;;;;5030134;28;20025;-61
2023/09/29 11:54:51;;;;;;;4.82;2.88;;;;;;;;;;5032840;28;20057;-60
2023/09/29 11:57:17;;;;;;;6.97;2.83;;;;;;;;;;5034377;28;20194;-60
2023/09/29 11:59:42;;;;;;;6.00;2.97;;;;;;;;;;5030738;28;20532;-60
2023/09/29 12:02:07;;;;;;;5.53;2.80;;;;;;;;;;5030861;28;20304;-61
2023/09/29 12:04:32;;;;;;;6.73;3.00;;;;;;;;;;5033551;28;20291;-61
2023/09/29 12:06:58;;;;;;;8.73;3.07;;;;;;;;;;5031323;28;20698;-61
2023/09/29 12:09:23;;;;;;;4.40;2.72;;;;;;;;;;5031934;28;20320;-60
2023/09/29 12:11:49;;;;;;;4.13;2.83;;;;;;;;;;5034849;28;20032;-61
2023/09/29 12:14:14;;;;;;;4.60;2.57;;;;;;;;;;5032829;28;20360;-61
2023/09/29 12:16:39;;;;;;;4.22;2.50;;;;;;;;;;5030284;28;20819;-60
2023/09/29 12:19:05;;;;;;;7.00;2.90;;;;;;;;;;5029777;28;20500;-61
2023/09/29 12:21:30;;;;;;;5.93;2.92;;;;;;;;;;5029966;28;20513;-59
2023/09/29 12:23:56;;;;;;;4.68;2.78;;;;;;;;;;5031230;28;20113;-60
2023/09/29 12:26:21;;;;;;;6.13;3.08;;;;;;;;;;5031614;28;20033;-60
2023/09/29 12:28:47;;;;;;;5.05;2.38;;;;;;;;;;5031297;28;20067;-60
2023/09/29 12:31:18;;;;;;;5.97;2.58;;;;;;;;;;5031285;28;20037;-59
2023/09/29 12:33:45;;;;;;;5.53;2.30;;;;;;;;;;5031300;28;20147;-61
2023/09/29 12:36:10;;;;;;;7.15;2.70;;;;;;;;;;5034003;28;20052;-60
2023/09/29 12:38:36;;;;;;;4.65;2.20;;;;;;;;;;5033728;28;20132;-60
2023/09/29 12:41:01;;;;;;;4.07;2.55;;;;;;;;;;5033666;28;20037;-61
2023/09/29 12:43:26;;;;;;;5.15;2.72;;;;;;;;;;5030930;28;20528;-61
2023/09/29 12:45:52;;;;;;;6.50;2.33;;;;;;;;;;5030592;28;20106;-61
2023/09/29 12:48:17;;;;;;;4.68;2.05;;;;;;;;;;5032519;28;20820;-60
2023/09/29 12:50:43;;;;;;;6.10;2.40;;;;;;;;;;5030061;28;20033;-61
2023/09/29 12:53:08;;;;;;;5.55;2.53;;;;;;;;;;5030244;28;20839;-61
2023/09/29 12:55:33;;;;;;;6.43;2.90;;;;;;;;;;5028620;28;20041;-61
2023/09/29 12:58:05;;;;;;;4.30;2.67;;;;;;;;;;5028637;28;20338;-61
2023/09/29 13:00:34;;;;;;;4.70;2.65;;;;;;;;;;5030646;28;20708;-61
2023/09/29 13:03:04;;;;;;;6.82;2.30;;;;;;;;;;5027625;28;20040;-60
2023/09/29 13:05:30;;;;;;;5.72;2.53;;;;;;;;;;5028545;28;20893;-60
2023/09/29 13:07:56;;;;;;;9.07;2.60;;;;;;;;;;5032770;28;20041;-61
2023/09/29 13:10:22;;;;;;;6.30;2.22;;;;;;;;;;5029800;28;20037;-63
2023/09/29 13:12:54;;;;;;;5.82;2.45;;;;;;;;;;5034442;28;20040;-61
2023/09/29 13:15:21;;;;;;;5.30;2.35;;;;;;;;;;5026646;28;20033;-60
2023/09/29 13:17:46;;;;;;;4.68;2.38;;;;;;;;;;5028503;28;20041;-60
2023/09/29 13:20:12;;;;;;;6.63;2.10;;;;;;;;;;5026656;28;20512;-61
2023/09/29 13:22:38;;;;;;;3.17;1.67;;;;;;;;;;5031849;28;20021;-59
2023/09/29 13:25:04;;;;;;;8.68;2.15;;;;;;;;;;5028564;28;20507;-60
2023/09/29 13:27:32;;;;;;;4.30;2.05;;;;;;;;;;5029134;28;20044;-60
2023/09/29 13:29:57;;;;;;;4.57;2.20;;;;;;;;;;5029390;28;20107;-61
2023/09/29 13:32:22;;;;;;;8.25;2.25;;;;;;;;;;5028254;28;20108;-61
2023/09/29 13:34:48;;;;;;;8.60;2.43;;;;;;;;;;5033502;28;20501;-60
2023/09/29 13:37:17;;;;;;;5.88;2.10;;;;;;;;;;5027876;28;20264;-60
2023/09/29 13:39:42;;;;;;;6.60;2.10;;;;;;;;;;5028439;28;20039;-60
2023/09/29 13:42:08;;;;;;;8.15;2.15;;;;;;;;;;5026117;28;20275;-61
2023/09/29 13:44:33;;;;;;;10.50;2.38;;;;;;;;;;5030413;28;20116;-60
2023/09/29 13:46:58;;;;;;;7.80;2.10;;;;;;;;;;5029249;28;20033;-62
2023/09/29 13:49:24;;;;;;;7.80;1.97;;;;;;;;;;5029322;28;20272;-61
2023/09/29 13:51:49;;;;;;;6.20;2.28;;;;;;;;;;5032504;28;20345;-61
2023/09/29 13:54:15;;;;;;;5.60;2.13;;;;;;;;;;5030079;28;20021;-62
2023/09/29 13:56:40;;;;;;;6.57;2.20;;;;;;;;;;5029736;28;20087;-61
2023/09/29 13:59:06;;;;;;;6.95;2.35;;;;;;;;;;5029750;28;20033;-62
2023/09/29 14:01:31;;;;;;;9.07;2.38;;;;;;;;;;5028514;28;20095;-62
2023/09/29 14:03:58;;;;;;;8.80;2.30;;;;;;;;;;5028646;28;20021;-61
2023/09/29 14:06:23;;;;;;;6.55;2.28;;;;;;;;;;5030290;28;20279;-62
2023/09/29 14:08:48;;;;;;;11.63;2.53;;;;;;;;;;5028785;28;20021;-62
2023/09/29 14:11:13;;;;;;;9.03;2.20;;;;;;;;;;5029940;28;20017;-61
2023/09/29 14:13:39;;;;;;;7.22;2.58;;;;;;;;;;5030594;28;20286;-62
2023/09/29 14:16:05;;;;;;;8.05;2.83;;;;;;;;;;5029396;28;20165;-62
2023/09/29 14:18:30;;;;;;;7.55;2.50;;;;;;;;;;5028236;28;20040;-62
2023/09/29 14:20:56;;;;;;;6.80;2.65;;;;;;;;;;5029429;28;20729;-62
2023/09/29 14:23:21;;;;;;;7.85;2.80;;;;;;;;;;5027227;28;20041;-61
2023/09/29 14:25:47;;;;;;;6.80;2.35;;;;;;;;;;5026696;28;20149;-61
2023/09/29 14:28:12;;;;;;;7.68;2.55;;;;;;;;;;5029553;28;20041;-61
2023/09/29 14:30:38;;;;;;;7.88;2.50;;;;;;;;;;5034311;28;20503;-61
2023/09/29 14:33:04;;;;;;;10.03;2.97;;;;;;;;;;5034358;28;20041;-61
2023/09/29 14:35:32;;;;;;;7.03;3.05;;;;;;;;;;5036839;28;20291;-62
2023/09/29 14:37:58;;;;;;;9.27;2.70;;;;;;;;;;5031429;28;20117;-62
2023/09/29 14:40:23;;;;;;;6.95;2.85;;;;;;;;;;5031161;28;20763;-61